sensor_id;sensor_type;location;lat;lon;timestamp;pressure;altitude;pressure_sealevel;temperature;humidity
59337;BME280;45115;52.002;4.686;2022-11-04T00:01:51;100125.34;;;9.82;100.00
59337;BME280;45115;52.002;4.686;2022-11-04T00:04:19;100126.91;;;9.83;100.00
59337;BME280;45115;52.002;4.686;2022-11-04T00:06:48;100130.06;;;9.86;100.00
59337;BME280;45115;52.002;4.686;2022-11-04T00:09:17;100129.56;;;9.83;100.00
59337;BME280;45115;52.002;4.686;2022-11-04T00:11:44;100133.28;;;9.82;100.00
59337;BME280;45115;52.002;4.686;2022-11-04T00:14:29;100140.44;;;9.82;100.00
59337;BME280;45115;52.002;4.686;2022-11-04T00:16:56;100148.66;;;9.80;100.00
59337;BME280;45115;52.002;4.686;2022-11-04T00:19:41;100148.38;;;9.82;100.00
59337;BME280;45115;52.002;4.686;2022-11-04T00:22:26;100150.75;;;9.83;100.00
59337;BME280;45115;52.002;4.686;2022-11-04T00:25:11;100153.13;;;9.85;100.00
59337;BME280;45115;52.002;4.686;2022-11-04T00:28:01;100160.53;;;9.83;100.00
59337;BME280;45115;52.002;4.686;2022-11-04T00:30:46;100159.78;;;9.82;100.00
59337;BME280;45115;52.002;4.686;2022-11-04T00:33:12;100161.56;;;9.87;100.00
59337;BME280;45115;52.002;4.686;2022-11-04T00:35:51;100173.75;;;9.88;100.00
59337;BME280;45115;52.002;4.686;2022-11-04T00:38:19;100171.56;;;9.95;100.00
59337;BME280;45115;52.002;4.686;2022-11-04T00:40:46;100173.94;;;9.97;100.00
59337;BME280;45115;52.002;4.686;2022-11-04T00:43:13;100173.88;;;10.02;100.00
59337;BME280;45115;52.002;4.686;2022-11-04T00:45:40;100184.44;;;10.07;100.00
59337;BME280;45115;52.002;4.686;2022-11-04T00:48:07;100182.06;;;10.06;100.00
59337;BME280;45115;52.002;4.686;2022-11-04T00:50:34;100187.34;;;10.06;100.00
59337;BME280;45115;52.002;4.686;2022-11-04T00:53:01;100188.25;;;9.96;100.00
59337;BME280;45115;52.002;4.686;2022-11-04T00:55:30;100190.44;;;9.89;100.00
59337;BME280;45115;52.002;4.686;2022-11-04T00:57:56;100197.22;;;9.70;100.00
59337;BME280;45115;52.002;4.686;2022-11-04T01:00:23;100198.69;;;9.52;100.00
59337;BME280;45115;52.002;4.686;2022-11-04T01:02:50;100189.50;;;9.39;100.00
59337;BME280;45115;52.002;4.686;2022-11-04T01:05:16;100205.38;;;9.39;100.00
59337;BME280;45115;52.002;4.686;2022-11-04T01:07:43;100204.34;;;9.35;100.00
59337;BME280;45115;52.002;4.686;2022-11-04T01:10:10;100208.84;;;9.35;100.00
59337;BME280;45115;52.002;4.686;2022-11-04T01:12:38;100212.53;;;9.39;100.00
59337;BME280;45115;52.002;4.686;2022-11-04T01:15:14;100221.25;;;9.39;100.00
59337;BME280;45115;52.002;4.686;2022-11-04T01:17:41;100230.25;;;9.43;100.00
59337;BME280;45115;52.002;4.686;2022-11-04T01:20:08;100225.50;;;9.40;100.00
59337;BME280;45115;52.002;4.686;2022-11-04T01:22:35;100226.03;;;9.37;100.00
59337;BME280;45115;52.002;4.686;2022-11-04T01:25:02;100234.75;;;9.43;100.00
59337;BME280;45115;52.002;4.686;2022-11-04T01:27:29;100226.84;;;9.38;100.00
59337;BME280;45115;52.002;4.686;2022-11-04T01:29:57;100232.94;;;9.38;100.00
59337;BME280;45115;52.002;4.686;2022-11-04T01:32:24;100244.84;;;9.36;100.00
59337;BME280;45115;52.002;4.686;2022-11-04T01:34:50;100249.84;;;9.37;100.00
59337;BME280;45115;52.002;4.686;2022-11-04T01:37:17;100252.78;;;9.36;100.00
59337;BME280;45115;52.002;4.686;2022-11-04T01:39:44;100248.53;;;9.35;100.00
59337;BME280;45115;52.002;4.686;2022-11-04T01:42:13;100257.28;;;9.35;100.00
59337;BME280;45115;52.002;4.686;2022-11-04T01:44:52;100265.75;;;9.37;100.00
59337;BME280;45115;52.002;4.686;2022-11-04T01:47:25;100273.16;;;9.35;100.00
59337;BME280;45115;52.002;4.686;2022-11-04T01:49:54;100264.97;;;9.37;100.00
59337;BME280;45115;52.002;4.686;2022-11-04T01:52:25;100266.81;;;9.36;100.00
59337;BME280;45115;52.002;4.686;2022-11-04T01:54:55;100272.94;;;9.32;100.00
59337;BME280;45115;52.002;4.686;2022-11-04T01:57:27;100274.28;;;9.29;100.00
59337;BME280;45115;52.002;4.686;2022-11-04T01:59:57;100281.41;;;9.28;100.00
59337;BME280;45115;52.002;4.686;2022-11-04T02:02:45;100285.38;;;9.26;100.00
59337;BME280;45115;52.002;4.686;2022-11-04T02:05:15;100281.69;;;9.22;100.00
59337;BME280;45115;52.002;4.686;2022-11-04T02:07:42;100289.16;;;9.14;100.00
59337;BME280;45115;52.002;4.686;2022-11-04T02:10:09;100283.91;;;9.04;100.00
59337;BME280;45115;52.002;4.686;2022-11-04T02:12:37;100290.03;;;8.94;100.00
59337;BME280;45115;52.002;4.686;2022-11-04T02:15:17;100285.28;;;8.81;100.00
59337;BME280;45115;52.002;4.686;2022-11-04T02:18:05;100290.34;;;8.77;100.00
59337;BME280;45115;52.002;4.686;2022-11-04T02:24:08;100280.03;;;8.70;100.00
59337;BME280;45115;52.002;4.686;2022-11-04T02:27:02;100291.63;;;8.85;100.00
59337;BME280;45115;52.002;4.686;2022-11-04T02:29:43;100289.00;;;8.80;100.00
59337;BME280;45115;52.002;4.686;2022-11-04T02:32:20;100296.66;;;8.86;100.00
59337;BME280;45115;52.002;4.686;2022-11-04T02:34:55;100291.88;;;8.88;100.00
59337;BME280;45115;52.002;4.686;2022-11-04T02:37:36;100293.19;;;8.91;100.00
59337;BME280;45115;52.002;4.686;2022-11-04T02:40:13;100292.69;;;8.89;100.00
59337;BME280;45115;52.002;4.686;2022-11-04T02:42:52;100292.69;;;8.89;100.00
59337;BME280;45115;52.002;4.686;2022-11-04T02:45:24;100293.75;;;8.88;100.00
59337;BME280;45115;52.002;4.686;2022-11-04T02:47:59;100297.19;;;8.83;100.00
59337;BME280;45115;52.002;4.686;2022-11-04T02:50:32;100293.22;;;8.81;100.00
59337;BME280;45115;52.002;4.686;2022-11-04T02:53:03;100299.09;;;8.67;100.00
59337;BME280;45115;52.002;4.686;2022-11-04T02:55:37;100305.97;;;8.63;100.00
59337;BME280;45115;52.002;4.686;2022-11-04T02:58:10;100306.22;;;8.61;100.00
59337;BME280;45115;52.002;4.686;2022-11-04T03:00:41;100306.75;;;8.53;100.00
59337;BME280;45115;52.002;4.686;2022-11-04T03:03:12;100302.78;;;8.45;100.00
59337;BME280;45115;52.002;4.686;2022-11-04T03:05:44;100298.31;;;8.30;100.00
59337;BME280;45115;52.002;4.686;2022-11-04T03:08:15;100305.47;;;8.19;100.00
59337;BME280;45115;52.002;4.686;2022-11-04T03:10:45;100299.63;;;8.17;100.00
59337;BME280;45115;52.002;4.686;2022-11-04T03:13:16;100290.13;;;8.06;100.00
59337;BME280;45115;52.002;4.686;2022-11-04T03:15:49;100295.66;;;8.04;100.00
59337;BME280;45115;52.002;4.686;2022-11-04T03:18:22;100304.91;;;8.02;100.00
59337;BME280;45115;52.002;4.686;2022-11-04T03:20:55;100292.75;;;7.95;100.00
59337;BME280;45115;52.002;4.686;2022-11-04T03:23:22;100297.50;;;7.83;100.00
59337;BME280;45115;52.002;4.686;2022-11-04T03:25:52;100302.78;;;7.88;100.00
59337;BME280;45115;52.002;4.686;2022-11-04T03:28:22;100311.50;;;7.89;100.00
59337;BME280;45115;52.002;4.686;2022-11-04T03:30:55;100311.47;;;7.78;100.00
59337;BME280;45115;52.002;4.686;2022-11-04T03:33:27;100323.63;;;7.74;100.00
59337;BME280;45115;52.002;4.686;2022-11-04T03:35:59;100330.50;;;7.75;100.00
59337;BME280;45115;52.002;4.686;2022-11-04T03:38:27;100327.31;;;7.73;100.00
59337;BME280;45115;52.002;4.686;2022-11-04T03:40:54;100321.75;;;7.69;100.00
59337;BME280;45115;52.002;4.686;2022-11-04T03:43:23;100325.19;;;7.65;100.00
59337;BME280;45115;52.002;4.686;2022-11-04T03:45:53;100329.13;;;7.57;100.00
59337;BME280;45115;52.002;4.686;2022-11-04T03:48:21;100331.25;;;7.60;100.00
59337;BME280;45115;52.002;4.686;2022-11-04T03:50:49;100328.84;;;7.48;100.00
59337;BME280;45115;52.002;4.686;2022-11-04T03:53:18;100335.41;;;7.35;100.00
59337;BME280;45115;52.002;4.686;2022-11-04T03:55:57;100344.84;;;7.26;100.00
59337;BME280;45115;52.002;4.686;2022-11-04T03:58:36;100336.34;;;7.13;100.00
59337;BME280;45115;52.002;4.686;2022-11-04T04:01:14;100350.09;;;7.15;100.00
59337;BME280;45115;52.002;4.686;2022-11-04T04:03:51;100345.84;;;7.09;100.00
59337;BME280;45115;52.002;4.686;2022-11-04T04:06:23;100338.41;;;7.01;100.00
59337;BME280;45115;52.002;4.686;2022-11-04T04:08:54;100346.53;;;6.94;100.00
59337;BME280;45115;52.002;4.686;2022-11-04T04:11:29;100348.34;;;6.88;100.00
59337;BME280;45115;52.002;4.686;2022-11-04T04:14:04;100342.25;;;6.83;100.00
59337;BME280;45115;52.002;4.686;2022-11-04T04:16:37;100348.28;;;6.78;100.00
59337;BME280;45115;52.002;4.686;2022-11-04T04:19:09;100349.31;;;6.72;100.00
59337;BME280;45115;52.002;4.686;2022-11-04T04:21:41;100349.78;;;6.63;100.00
59337;BME280;45115;52.002;4.686;2022-11-04T04:24:11;100365.59;;;6.63;100.00
59337;BME280;45115;52.002;4.686;2022-11-04T04:26:57;100372.72;;;6.68;100.00
59337;BME280;45115;52.002;4.686;2022-11-04T04:29:42;100372.69;;;6.63;100.00
59337;BME280;45115;52.002;4.686;2022-11-04T04:32:12;100378.69;;;6.53;100.00
59337;BME280;45115;52.002;4.686;2022-11-04T04:34:39;100378.59;;;6.43;100.00
59337;BME280;45115;52.002;4.686;2022-11-04T04:37:08;100379.56;;;6.31;100.00
59337;BME280;45115;52.002;4.686;2022-11-04T04:39:39;100377.88;;;6.20;100.00
59337;BME280;45115;52.002;4.686;2022-11-04T04:42:25;100372.34;;;6.21;100.00
59337;BME280;45115;52.002;4.686;2022-11-04T04:45:19;100381.81;;;6.17;100.00
59337;BME280;45115;52.002;4.686;2022-11-04T04:47:48;100380.41;;;6.09;100.00
59337;BME280;45115;52.002;4.686;2022-11-04T04:50:18;100374.22;;;5.98;100.00
59337;BME280;45115;52.002;4.686;2022-11-04T04:52:47;100385.78;;;5.97;100.00
59337;BME280;45115;52.002;4.686;2022-11-04T04:55:15;100382.09;;;5.98;100.00
59337;BME280;45115;52.002;4.686;2022-11-04T04:57:42;100383.25;;;6.03;100.00
59337;BME280;45115;52.002;4.686;2022-11-04T05:00:12;100384.69;;;5.93;100.00
59337;BME280;45115;52.002;4.686;2022-11-04T05:02:40;100388.06;;;5.89;100.00
59337;BME280;45115;52.002;4.686;2022-11-04T05:05:09;100395.34;;;5.81;100.00
59337;BME280;45115;52.002;4.686;2022-11-04T05:07:36;100399.31;;;5.84;100.00
59337;BME280;45115;52.002;4.686;2022-11-04T05:10:03;100395.28;;;5.76;100.00
59337;BME280;45115;52.002;4.686;2022-11-04T05:12:29;100403.25;;;5.81;100.00
59337;BME280;45115;52.002;4.686;2022-11-04T05:15:16;100405.69;;;5.88;100.00
59337;BME280;45115;52.002;4.686;2022-11-04T05:17:43;100407.75;;;6.03;100.00
59337;BME280;45115;52.002;4.686;2022-11-04T05:20:11;100411.25;;;6.14;100.00
59337;BME280;45115;52.002;4.686;2022-11-04T05:22:38;100411.06;;;6.21;100.00
59337;BME280;45115;52.002;4.686;2022-11-04T05:25:05;100430.09;;;6.28;100.00
59337;BME280;45115;52.002;4.686;2022-11-04T05:27:32;100429.63;;;6.31;100.00
59337;BME280;45115;52.002;4.686;2022-11-04T05:29:59;100431.50;;;6.36;100.00
59337;BME280;45115;52.002;4.686;2022-11-04T05:32:27;100431.78;;;6.40;100.00
59337;BME280;45115;52.002;4.686;2022-11-04T05:34:54;100425.78;;;6.44;100.00
59337;BME280;45115;52.002;4.686;2022-11-04T05:37:22;100440.88;;;6.54;100.00
59337;BME280;45115;52.002;4.686;2022-11-04T05:39:49;100439.63;;;6.62;100.00
59337;BME280;45115;52.002;4.686;2022-11-04T05:42:16;100440.50;;;6.68;100.00
59337;BME280;45115;52.002;4.686;2022-11-04T05:44:43;100444.22;;;6.72;100.00
59337;BME280;45115;52.002;4.686;2022-11-04T05:47:10;100448.19;;;6.74;100.00
59337;BME280;45115;52.002;4.686;2022-11-04T05:49:36;100453.50;;;6.80;100.00
59337;BME280;45115;52.002;4.686;2022-11-04T05:52:04;100442.66;;;6.76;100.00
59337;BME280;45115;52.002;4.686;2022-11-04T05:54:32;100462.19;;;6.80;100.00
59337;BME280;45115;52.002;4.686;2022-11-04T05:56:59;100460.06;;;6.77;100.00
59337;BME280;45115;52.002;4.686;2022-11-04T05:59:26;100456.69;;;6.82;100.00
59337;BME280;45115;52.002;4.686;2022-11-04T06:01:53;100457.25;;;6.89;100.00
59337;BME280;45115;52.002;4.686;2022-11-04T06:04:19;100462.59;;;6.99;100.00
59337;BME280;45115;52.002;4.686;2022-11-04T06:06:46;100463.97;;;7.07;100.00
59337;BME280;45115;52.002;4.686;2022-11-04T06:09:13;100471.44;;;7.15;100.00
59337;BME280;45115;52.002;4.686;2022-11-04T06:11:41;100463.31;;;7.22;100.00
59337;BME280;45115;52.002;4.686;2022-11-04T06:14:10;100469.44;;;7.33;100.00
59337;BME280;45115;52.002;4.686;2022-11-04T06:16:36;100468.97;;;7.41;100.00
59337;BME280;45115;52.002;4.686;2022-11-04T06:19:03;100477.47;;;7.54;100.00
59337;BME280;45115;52.002;4.686;2022-11-04T06:21:31;100481.19;;;7.58;100.00
59337;BME280;45115;52.002;4.686;2022-11-04T06:23:58;100474.09;;;7.58;100.00
59337;BME280;45115;52.002;4.686;2022-11-04T06:26:27;100481.13;;;7.48;100.00
59337;BME280;45115;52.002;4.686;2022-11-04T06:28:57;100482.13;;;7.36;100.00
59337;BME280;45115;52.002;4.686;2022-11-04T06:31:23;100487.69;;;7.40;100.00
59337;BME280;45115;52.002;4.686;2022-11-04T06:33:50;100489.56;;;7.44;100.00
59337;BME280;45115;52.002;4.686;2022-11-04T06:36:17;100482.72;;;7.49;100.00
59337;BME280;45115;52.002;4.686;2022-11-04T06:38:43;100479.56;;;7.47;100.00
59337;BME280;45115;52.002;4.686;2022-11-04T06:41:12;100480.25;;;7.31;100.00
59337;BME280;45115;52.002;4.686;2022-11-04T06:43:39;100482.72;;;7.11;100.00
59337;BME280;45115;52.002;4.686;2022-11-04T06:46:23;100488.97;;;6.99;100.00
59337;BME280;45115;52.002;4.686;2022-11-04T06:48:50;100486.31;;;6.94;100.00
59337;BME280;45115;52.002;4.686;2022-11-04T06:51:16;100488.94;;;6.94;100.00
59337;BME280;45115;52.002;4.686;2022-11-04T06:53:43;100491.34;;;6.96;100.00
59337;BME280;45115;52.002;4.686;2022-11-04T06:56:10;100497.06;;;6.87;100.00
59337;BME280;45115;52.002;4.686;2022-11-04T06:58:37;100497.84;;;6.88;100.00
59337;BME280;45115;52.002;4.686;2022-11-04T07:01:04;100505.09;;;7.03;100.00
59337;BME280;45115;52.002;4.686;2022-11-04T07:03:32;100504.59;;;7.06;100.00
59337;BME280;45115;52.002;4.686;2022-11-04T07:05:58;100499.81;;;7.03;100.00
59337;BME280;45115;52.002;4.686;2022-11-04T07:08:30;100506.94;;;7.02;100.00
59337;BME280;45115;52.002;4.686;2022-11-04T07:10:57;100504.28;;;6.97;100.00
59337;BME280;45115;52.002;4.686;2022-11-04T07:13:24;100510.56;;;6.91;100.00
59337;BME280;45115;52.002;4.686;2022-11-04T07:15:54;100486.34;;;6.67;100.00
59337;BME280;45115;52.002;4.686;2022-11-04T07:18:22;100522.34;;;6.83;100.00
59337;BME280;45115;52.002;4.686;2022-11-04T07:20:50;100515.50;;;6.87;100.00
59337;BME280;45115;52.002;4.686;2022-11-04T07:23:17;100520.09;;;6.97;100.00
59337;BME280;45115;52.002;4.686;2022-11-04T07:25:44;100541.00;;;7.04;100.00
59337;BME280;45115;52.002;4.686;2022-11-04T07:28:10;100537.59;;;7.09;100.00
59337;BME280;45115;52.002;4.686;2022-11-04T07:30:37;100547.09;;;7.10;100.00
59337;BME280;45115;52.002;4.686;2022-11-04T07:33:15;100553.91;;;7.05;100.00
59337;BME280;45115;52.002;4.686;2022-11-04T07:35:42;100546.03;;;7.11;100.00
59337;BME280;45115;52.002;4.686;2022-11-04T07:38:11;100545.78;;;7.12;100.00
59337;BME280;45115;52.002;4.686;2022-11-04T07:40:37;100555.69;;;7.27;100.00
59337;BME280;45115;52.002;4.686;2022-11-04T07:43:04;100559.19;;;7.38;100.00
59337;BME280;45115;52.002;4.686;2022-11-04T07:45:35;100565.84;;;7.46;100.00
59337;BME280;45115;52.002;4.686;2022-11-04T07:48:03;100563.03;;;7.58;100.00
59337;BME280;45115;52.002;4.686;2022-11-04T07:50:29;100562.28;;;7.68;100.00
59337;BME280;45115;52.002;4.686;2022-11-04T07:52:57;100569.03;;;7.91;100.00
59337;BME280;45115;52.002;4.686;2022-11-04T07:55:26;100575.97;;;8.08;100.00
59337;BME280;45115;52.002;4.686;2022-11-04T07:57:53;100577.13;;;8.22;100.00
59337;BME280;45115;52.002;4.686;2022-11-04T08:00:20;100590.94;;;8.45;100.00
59337;BME280;45115;52.002;4.686;2022-11-04T08:02:47;100585.19;;;8.54;100.00
59337;BME280;45115;52.002;4.686;2022-11-04T08:05:14;100592.34;;;8.63;100.00
59337;BME280;45115;52.002;4.686;2022-11-04T08:07:40;100579.13;;;8.69;100.00
59337;BME280;45115;52.002;4.686;2022-11-04T08:10:08;100581.56;;;8.86;100.00
59337;BME280;45115;52.002;4.686;2022-11-04T08:12:37;100590.34;;;9.02;100.00
59337;BME280;45115;52.002;4.686;2022-11-04T08:15:04;100597.47;;;9.12;100.00
59337;BME280;45115;52.002;4.686;2022-11-04T08:17:31;100586.63;;;9.08;100.00
59337;BME280;45115;52.002;4.686;2022-11-04T08:19:58;100612.56;;;9.32;100.00
59337;BME280;45115;52.002;4.686;2022-11-04T08:22:24;100624.78;;;9.43;100.00
59337;BME280;45115;52.002;4.686;2022-11-04T08:24:51;100619.72;;;9.47;100.00
59337;BME280;45115;52.002;4.686;2022-11-04T08:27:18;100625.53;;;9.60;100.00
59337;BME280;45115;52.002;4.686;2022-11-04T08:29:46;100625.78;;;9.74;100.00
59337;BME280;45115;52.002;4.686;2022-11-04T08:32:12;100627.13;;;9.76;100.00
59337;BME280;45115;52.002;4.686;2022-11-04T08:34:39;100625.53;;;9.75;100.00
59337;BME280;45115;52.002;4.686;2022-11-04T08:37:06;100631.66;;;9.60;100.00
59337;BME280;45115;52.002;4.686;2022-11-04T08:39:33;100628.44;;;9.42;100.00
59337;BME280;45115;52.002;4.686;2022-11-04T08:42:00;100629.78;;;9.35;100.00
59337;BME280;45115;52.002;4.686;2022-11-04T08:44:26;100617.34;;;9.25;100.00
59337;BME280;45115;52.002;4.686;2022-11-04T08:46:54;100638.50;;;9.25;100.00
59337;BME280;45115;52.002;4.686;2022-11-04T08:49:21;100635.06;;;9.40;100.00
59337;BME280;45115;52.002;4.686;2022-11-04T08:51:48;100644.63;;;9.62;100.00
59337;BME280;45115;52.002;4.686;2022-11-04T08:54:21;100637.44;;;9.83;100.00
59337;BME280;45115;52.002;4.686;2022-11-04T08:56:47;100642.19;;;10.02;100.00
59337;BME280;45115;52.002;4.686;2022-11-04T08:59:14;100656.41;;;10.37;100.00
59337;BME280;45115;52.002;4.686;2022-11-04T09:01:42;100650.97;;;10.73;100.00
59337;BME280;45115;52.002;4.686;2022-11-04T09:04:11;100647.38;;;11.04;100.00
59337;BME280;45115;52.002;4.686;2022-11-04T09:06:40;100644.41;;;11.11;100.00
59337;BME280;45115;52.002;4.686;2022-11-04T09:09:09;100651.88;;;11.03;100.00
59337;BME280;45115;52.002;4.686;2022-11-04T09:11:39;100649.66;;;10.71;100.00
59337;BME280;45115;52.002;4.686;2022-11-04T09:14:06;100643.84;;;10.69;100.00
59337;BME280;45115;52.002;4.686;2022-11-04T09:16:34;100656.06;;;10.65;100.00
59337;BME280;45115;52.002;4.686;2022-11-04T09:19:02;100663.00;;;10.55;100.00
59337;BME280;45115;52.002;4.686;2022-11-04T09:21:30;100659.34;;;10.46;100.00
59337;BME280;45115;52.002;4.686;2022-11-04T09:23:57;100667.81;;;10.37;100.00
59337;BME280;45115;52.002;4.686;2022-11-04T09:26:24;100667.84;;;10.27;100.00
59337;BME280;45115;52.002;4.686;2022-11-04T09:28:55;100678.72;;;10.20;100.00
59337;BME280;45115;52.002;4.686;2022-11-04T09:31:23;100676.06;;;10.20;100.00
59337;BME280;45115;52.002;4.686;2022-11-04T09:33:50;100676.63;;;10.17;100.00
59337;BME280;45115;52.002;4.686;2022-11-04T09:36:17;100690.66;;;10.18;100.00
59337;BME280;45115;52.002;4.686;2022-11-04T09:38:45;100688.56;;;10.20;100.00
59337;BME280;45115;52.002;4.686;2022-11-04T09:41:30;100707.09;;;10.46;100.00
59337;BME280;45115;52.002;4.686;2022-11-04T09:44:03;100703.75;;;10.85;100.00
59337;BME280;45115;52.002;4.686;2022-11-04T09:46:36;100713.56;;;11.35;100.00
59337;BME280;45115;52.002;4.686;2022-11-04T09:49:06;100721.00;;;11.73;100.00
59337;BME280;45115;52.002;4.686;2022-11-04T09:51:35;100719.97;;;12.04;100.00
59337;BME280;45115;52.002;4.686;2022-11-04T09:54:09;100731.59;;;12.38;100.00
59337;BME280;45115;52.002;4.686;2022-11-04T09:56:41;100719.31;;;12.42;100.00
59337;BME280;45115;52.002;4.686;2022-11-04T09:59:13;100720.56;;;12.25;100.00
59337;BME280;45115;52.002;4.686;2022-11-04T10:01:45;100729.16;;;12.17;100.00
59337;BME280;45115;52.002;4.686;2022-11-04T10:04:22;100730.59;;;12.04;100.00
59337;BME280;45115;52.002;4.686;2022-11-04T10:07:05;100734.06;;;11.99;100.00
59337;BME280;45115;52.002;4.686;2022-11-04T10:09:46;100742.63;;;11.96;100.00
59337;BME280;45115;52.002;4.686;2022-11-04T10:12:38;100747.50;;;11.83;100.00
59337;BME280;45115;52.002;4.686;2022-11-04T10:15:16;100756.81;;;11.81;100.00
59337;BME280;45115;52.002;4.686;2022-11-04T10:17:58;100751.34;;;11.67;100.00
59337;BME280;45115;52.002;4.686;2022-11-04T10:20:39;100757.78;;;11.61;100.00
59337;BME280;45115;52.002;4.686;2022-11-04T10:23:18;100759.13;;;11.58;100.00
59337;BME280;45115;52.002;4.686;2022-11-04T10:25:49;100770.47;;;11.64;100.00
59337;BME280;45115;52.002;4.686;2022-11-04T10:28:29;100765.44;;;11.67;100.00
59337;BME280;45115;52.002;4.686;2022-11-04T10:31:01;100775.00;;;11.68;100.00
59337;BME280;45115;52.002;4.686;2022-11-04T10:33:32;100782.16;;;11.68;100.00
59337;BME280;45115;52.002;4.686;2022-11-04T10:36:02;100793.06;;;11.66;100.00
59337;BME280;45115;52.002;4.686;2022-11-04T10:38:34;100794.88;;;11.76;100.00
59337;BME280;45115;52.002;4.686;2022-11-04T10:41:15;100802.19;;;11.90;100.00
59337;BME280;45115;52.002;4.686;2022-11-04T10:43:43;100805.34;;;11.97;100.00
59337;BME280;45115;52.002;4.686;2022-11-04T10:46:29;100800.50;;;12.09;100.00
59337;BME280;45115;52.002;4.686;2022-11-04T10:49:19;100808.13;;;12.21;100.00
59337;BME280;45115;52.002;4.686;2022-11-04T10:51:51;100801.63;;;12.33;100.00
59337;BME280;45115;52.002;4.686;2022-11-04T10:54:19;100804.94;;;12.49;100.00
59337;BME280;45115;52.002;4.686;2022-11-04T10:56:50;100803.00;;;12.55;100.00
59337;BME280;45115;52.002;4.686;2022-11-04T10:59:21;100802.59;;;12.72;100.00
59337;BME280;45115;52.002;4.686;2022-11-04T11:01:50;100800.38;;;12.79;100.00
59337;BME280;45115;52.002;4.686;2022-11-04T11:04:27;100794.91;;;12.89;100.00
59337;BME280;45115;52.002;4.686;2022-11-04T11:06:55;100799.19;;;12.91;100.00
59337;BME280;45115;52.002;4.686;2022-11-04T11:09:25;100810.94;;;13.09;100.00
59337;BME280;45115;52.002;4.686;2022-11-04T11:11:58;100807.56;;;13.03;100.00
59337;BME280;45115;52.002;4.686;2022-11-04T11:14:34;100805.63;;;13.09;100.00
59337;BME280;45115;52.002;4.686;2022-11-04T11:17:17;100806.91;;;13.11;100.00
59337;BME280;45115;52.002;4.686;2022-11-04T11:19:48;100810.03;;;13.19;100.00
59337;BME280;45115;52.002;4.686;2022-11-04T11:22:35;100810.81;;;13.19;100.00
59337;BME280;45115;52.002;4.686;2022-11-04T11:25:29;100814.56;;;13.18;100.00
59337;BME280;45115;52.002;4.686;2022-11-04T11:28:00;100818.47;;;13.45;100.00
59337;BME280;45115;52.002;4.686;2022-11-04T11:30:29;100824.06;;;13.49;100.00
59337;BME280;45115;52.002;4.686;2022-11-04T11:33:01;100828.91;;;13.22;100.00
59337;BME280;45115;52.002;4.686;2022-11-04T11:35:32;100833.34;;;13.08;100.00
59337;BME280;45115;52.002;4.686;2022-11-04T11:38:14;100838.72;;;13.02;100.00
59337;BME280;45115;52.002;4.686;2022-11-04T11:40:44;100845.47;;;12.95;100.00
59337;BME280;45115;52.002;4.686;2022-11-04T11:43:21;100842.63;;;12.86;100.00
59337;BME280;45115;52.002;4.686;2022-11-04T11:45:49;100850.13;;;12.84;100.00
59337;BME280;45115;52.002;4.686;2022-11-04T11:48:27;100857.53;;;12.87;100.00
59337;BME280;45115;52.002;4.686;2022-11-04T11:50:55;100860.66;;;12.70;100.00
59337;BME280;45115;52.002;4.686;2022-11-04T11:53:23;100862.63;;;12.54;100.00
59337;BME280;45115;52.002;4.686;2022-11-04T11:55:54;100868.19;;;12.28;100.00
59337;BME280;45115;52.002;4.686;2022-11-04T11:58:31;100863.63;;;11.93;100.00
59337;BME280;45115;52.002;4.686;2022-11-04T12:01:04;100859.75;;;11.70;100.00
59337;BME280;45115;52.002;4.686;2022-11-04T12:03:37;100854.78;;;11.58;100.00
59337;BME280;45115;52.002;4.686;2022-11-04T12:06:16;100858.97;;;11.64;100.00
59337;BME280;45115;52.002;4.686;2022-11-04T12:08:55;100861.41;;;12.06;100.00
59337;BME280;45115;52.002;4.686;2022-11-04T12:11:33;100862.94;;;12.76;100.00
59337;BME280;45115;52.002;4.686;2022-11-04T12:14:07;100868.75;;;12.84;100.00
59337;BME280;45115;52.002;4.686;2022-11-04T12:16:42;100866.97;;;12.44;100.00
59337;BME280;45115;52.002;4.686;2022-11-04T12:19:35;100875.22;;;12.08;100.00
59337;BME280;45115;52.002;4.686;2022-11-04T12:22:13;100873.53;;;11.77;100.00
59337;BME280;45115;52.002;4.686;2022-11-04T12:24:53;100879.69;;;11.73;100.00
59337;BME280;45115;52.002;4.686;2022-11-04T12:27:29;100877.50;;;11.80;100.00
59337;BME280;45115;52.002;4.686;2022-11-04T12:30:04;100882.34;;;11.73;100.00
59337;BME280;45115;52.002;4.686;2022-11-04T12:32:42;100881.31;;;11.63;100.00
59337;BME280;45115;52.002;4.686;2022-11-04T12:35:21;100888.75;;;11.61;100.00
59337;BME280;45115;52.002;4.686;2022-11-04T12:37:56;100881.81;;;11.65;100.00
59337;BME280;45115;52.002;4.686;2022-11-04T12:40:26;100888.47;;;11.63;100.00
59337;BME280;45115;52.002;4.686;2022-11-04T12:43:05;100890.84;;;11.69;100.00
59337;BME280;45115;52.002;4.686;2022-11-04T12:45:49;100900.41;;;11.70;100.00
59337;BME280;45115;52.002;4.686;2022-11-04T12:48:31;100898.88;;;11.59;100.00
59337;BME280;45115;52.002;4.686;2022-11-04T12:51:04;100900.53;;;11.39;100.00
59337;BME280;45115;52.002;4.686;2022-11-04T12:53:44;100896.28;;;11.38;100.00
59337;BME280;45115;52.002;4.686;2022-11-04T12:56:16;100904.28;;;11.33;100.00
59337;BME280;45115;52.002;4.686;2022-11-04T12:59:24;100905.63;;;11.20;100.00
59337;BME280;45115;52.002;4.686;2022-11-04T13:02:00;100917.34;;;11.09;100.00
59337;BME280;45115;52.002;4.686;2022-11-04T13:04:30;100919.22;;;11.03;100.00
59337;BME280;45115;52.002;4.686;2022-11-04T13:07:01;100930.41;;;10.89;100.00
59337;BME280;45115;52.002;4.686;2022-11-04T13:09:31;100933.06;;;10.79;100.00
59337;BME280;45115;52.002;4.686;2022-11-04T13:12:04;100943.41;;;10.75;100.00
59337;BME280;45115;52.002;4.686;2022-11-04T13:14:39;100939.44;;;10.78;100.00